createdAt,value
2022-12-01T00:01:57.033Z,9.81
2022-12-01T00:04:23.446Z,9.67
2022-12-01T00:06:49.784Z,9.94
2022-12-01T00:09:19.709Z,10.78
2022-12-01T00:11:46.714Z,11.10
2022-12-01T00:14:13.089Z,11.36
2022-12-01T00:16:39.547Z,12.02
2022-12-01T00:19:05.908Z,12.21
2022-12-01T00:21:32.279Z,12.36
2022-12-01T00:23:58.626Z,12.61
2022-12-01T00:26:24.949Z,12.92
2022-12-01T00:28:51.278Z,13.32
2022-12-01T00:31:17.702Z,13.29
2022-12-01T00:33:44.141Z,13.80
2022-12-01T00:36:10.530Z,13.86
2022-12-01T00:38:36.986Z,13.48
2022-12-01T00:41:03.411Z,13.80
2022-12-01T00:43:29.759Z,13.77
2022-12-01T00:45:56.142Z,13.45
2022-12-01T00:48:22.542Z,13.28
2022-12-01T00:50:48.915Z,13.40
2022-12-01T00:53:15.266Z,13.38
2022-12-01T00:55:41.601Z,13.18
2022-12-01T00:58:07.941Z,13.37
2022-12-01T01:00:34.333Z,13.39
2022-12-01T01:03:00.670Z,13.15
2022-12-01T01:05:27.042Z,13.70
2022-12-01T01:07:53.555Z,14.01
2022-12-01T01:10:19.996Z,13.36
2022-12-01T01:12:46.405Z,13.88
2022-12-01T01:15:12.763Z,13.97
2022-12-01T01:17:39.151Z,13.78
2022-12-01T01:20:05.547Z,13.40
2022-12-01T01:22:31.888Z,13.42
2022-12-01T01:24:58.273Z,13.88
2022-12-01T01:27:24.668Z,13.49
2022-12-01T01:29:51.150Z,13.37
2022-12-01T01:32:17.506Z,13.14
2022-12-01T01:34:43.846Z,13.43
2022-12-01T01:37:10.174Z,13.81
2022-12-01T01:39:36.504Z,13.68
2022-12-01T01:42:02.894Z,13.11
2022-12-01T01:44:29.242Z,13.33
2022-12-01T01:46:55.573Z,13.07
2022-12-01T01:49:21.960Z,12.97
2022-12-01T01:51:48.316Z,12.58
2022-12-01T01:54:14.649Z,13.21
2022-12-01T01:56:41.007Z,12.96
2022-12-01T01:59:07.356Z,13.08
2022-12-01T02:01:33.804Z,13.04
2022-12-01T02:04:00.232Z,12.17
2022-12-01T02:06:26.599Z,13.11
2022-12-01T02:08:52.944Z,12.99
2022-12-01T02:11:19.317Z,12.92
2022-12-01T02:13:45.695Z,13.04
2022-12-01T02:16:12.116Z,13.07
2022-12-01T02:18:38.502Z,13.76
2022-12-01T02:21:04.897Z,13.29
2022-12-01T02:23:31.244Z,13.53
2022-12-01T02:25:57.578Z,13.27
2022-12-01T02:28:23.966Z,13.27
2022-12-01T02:30:50.396Z,13.64
2022-12-01T02:33:16.765Z,13.36
2022-12-01T02:35:43.144Z,13.34
2022-12-01T02:38:09.537Z,13.64
2022-12-01T02:40:35.885Z,13.13
2022-12-01T02:43:02.273Z,12.97
2022-12-01T02:45:28.679Z,12.86
2022-12-01T02:47:55.069Z,13.05
2022-12-01T02:50:21.414Z,12.71
2022-12-01T02:52:47.747Z,12.46
2022-12-01T02:55:14.105Z,11.80
2022-12-01T02:57:40.450Z,12.07
2022-12-01T03:00:06.836Z,11.45
2022-12-01T03:02:33.224Z,11.88
2022-12-01T03:04:59.646Z,11.94
2022-12-01T03:07:26.047Z,11.52
2022-12-01T03:09:52.403Z,12.36
2022-12-01T03:12:18.737Z,11.94
2022-12-01T03:14:45.122Z,11.86
2022-12-01T03:17:11.467Z,11.71
2022-12-01T03:19:37.798Z,11.93
2022-12-01T03:22:04.177Z,12.59
2022-12-01T03:24:30.519Z,12.23
2022-12-01T03:26:56.859Z,11.44
2022-12-01T03:29:23.190Z,11.55
2022-12-01T03:31:49.523Z,11.36
2022-12-01T03:34:15.851Z,11.80
2022-12-01T03:36:42.172Z,11.42
2022-12-01T03:39:08.506Z,11.62
2022-12-01T03:41:34.847Z,11.62
2022-12-01T03:44:01.180Z,11.42
2022-12-01T03:46:27.565Z,11.11
2022-12-01T03:48:54.053Z,11.22
2022-12-01T03:51:20.428Z,11.02
2022-12-01T03:53:46.826Z,11.27
2022-12-01T03:56:13.216Z,11.71
2022-12-01T03:58:39.561Z,11.95
2022-12-01T04:01:05.894Z,11.79
2022-12-01T04:03:32.227Z,12.11
2022-12-01T04:05:58.568Z,12.00
2022-12-01T04:08:24.906Z,11.99
2022-12-01T04:10:51.279Z,11.84
2022-12-01T04:13:17.624Z,11.94
2022-12-01T04:15:44.030Z,12.11
2022-12-01T04:18:10.421Z,11.84
2022-12-01T04:20:36.789Z,12.29
2022-12-01T04:23:03.126Z,12.46
2022-12-01T04:25:29.454Z,12.73
2022-12-01T04:27:55.809Z,12.30
2022-12-01T04:30:22.130Z,13.05
2022-12-01T04:32:48.521Z,12.99
2022-12-01T04:35:14.869Z,12.51
2022-12-01T04:37:41.243Z,12.61
2022-12-01T04:40:07.616Z,12.59
2022-12-01T04:42:34.024Z,12.59
2022-12-01T04:45:00.410Z,13.22
2022-12-01T04:47:26.809Z,13.57
2022-12-01T04:49:53.214Z,13.29
2022-12-01T04:52:19.570Z,13.58
2022-12-01T04:54:45.918Z,13.42
2022-12-01T04:57:12.301Z,13.08
2022-12-01T04:59:38.659Z,13.42
2022-12-01T05:02:05.092Z,13.18
2022-12-01T05:04:31.625Z,13.01
2022-12-01T05:06:58.000Z,13.53
2022-12-01T05:09:24.343Z,13.28
2022-12-01T05:11:50.692Z,13.50
2022-12-01T05:14:17.021Z,13.09
2022-12-01T05:16:43.462Z,13.13
2022-12-01T05:19:09.878Z,13.19
2022-12-01T05:21:36.224Z,13.03
2022-12-01T05:24:02.608Z,13.18
2022-12-01T05:26:28.959Z,13.01
2022-12-01T05:28:55.337Z,13.65
2022-12-01T05:31:21.716Z,13.39
2022-12-01T05:33:48.096Z,13.39
2022-12-01T05:36:14.426Z,13.34
2022-12-01T05:38:40.788Z,13.40
2022-12-01T05:41:07.151Z,13.79
2022-12-01T05:43:33.474Z,13.55
2022-12-01T05:45:59.898Z,13.51
2022-12-01T05:48:26.365Z,13.91
2022-12-01T05:50:52.718Z,13.41
2022-12-01T05:53:19.113Z,13.75
2022-12-01T05:55:45.480Z,13.90
2022-12-01T05:58:11.863Z,14.24
2022-12-01T06:00:45.022Z,14.99
2022-12-01T06:03:12.248Z,14.22
2022-12-01T06:05:38.760Z,14.46
2022-12-01T06:08:05.143Z,14.49
2022-12-01T06:10:31.488Z,14.73
2022-12-01T06:12:57.874Z,14.61
2022-12-01T06:15:24.243Z,14.65
2022-12-01T06:17:50.586Z,15.25
2022-12-01T06:20:16.969Z,14.87
2022-12-01T06:22:43.352Z,14.76
2022-12-01T06:25:09.695Z,15.10
2022-12-01T06:27:36.038Z,14.92
2022-12-01T06:30:02.414Z,14.87
2022-12-01T06:32:28.831Z,14.79
2022-12-01T06:34:55.250Z,14.44
2022-12-01T06:37:21.636Z,14.48
2022-12-01T06:39:48.330Z,15.15
2022-12-01T06:42:14.882Z,14.36
2022-12-01T06:44:41.249Z,14.83
2022-12-01T06:47:07.615Z,14.79
2022-12-01T06:49:33.967Z,14.18
2022-12-01T06:52:01.181Z,14.88
2022-12-01T06:54:27.651Z,14.67
2022-12-01T06:56:54.010Z,14.42
2022-12-01T06:59:20.499Z,14.80
2022-12-01T07:01:47.287Z,14.83
2022-12-01T07:04:13.715Z,15.24
2022-12-01T07:06:40.106Z,14.82
2022-12-01T07:09:06.454Z,15.25
2022-12-01T07:11:32.841Z,14.96
2022-12-01T07:13:59.195Z,14.74
2022-12-01T07:16:25.600Z,14.67
2022-12-01T07:18:52.022Z,14.95
2022-12-01T07:21:18.401Z,15.43
2022-12-01T07:23:44.800Z,14.87
2022-12-01T07:26:11.155Z,14.85
2022-12-01T07:28:37.494Z,14.57
2022-12-01T07:31:03.915Z,15.24
2022-12-01T07:33:30.361Z,14.78
2022-12-01T07:35:56.706Z,15.56
2022-12-01T07:38:23.077Z,14.74
2022-12-01T07:40:49.448Z,14.94
2022-12-01T07:43:15.788Z,14.94
2022-12-01T07:45:42.217Z,15.25
2022-12-01T07:48:08.634Z,14.58
2022-12-01T07:50:35.029Z,14.80
2022-12-01T07:53:01.394Z,14.78
2022-12-01T07:55:27.779Z,15.28
2022-12-01T07:57:54.180Z,14.86
2022-12-01T08:00:20.522Z,14.66
2022-12-01T08:02:46.956Z,14.74
2022-12-01T08:05:13.373Z,14.75
2022-12-01T08:07:39.775Z,14.67
2022-12-01T08:10:06.207Z,15.00
2022-12-01T08:12:32.570Z,14.46
2022-12-01T08:14:58.999Z,14.15
2022-12-01T08:17:25.355Z,14.61
2022-12-01T08:19:51.822Z,14.17
2022-12-01T08:22:18.202Z,14.51
2022-12-01T08:24:44.539Z,14.05
2022-12-01T08:27:10.875Z,14.92
2022-12-01T08:29:37.252Z,13.83
2022-12-01T08:32:03.604Z,14.46
2022-12-01T08:34:29.990Z,13.97
2022-12-01T08:36:56.342Z,14.02
2022-12-01T08:39:22.742Z,14.38
2022-12-01T08:41:49.101Z,14.18
2022-12-01T08:44:15.482Z,13.86
2022-12-01T08:46:41.946Z,14.54
2022-12-01T08:49:08.380Z,14.46
2022-12-01T08:51:34.755Z,14.05
2022-12-01T08:54:01.107Z,13.86
2022-12-01T08:56:27.452Z,14.04
2022-12-01T08:58:53.778Z,14.26
2022-12-01T09:01:20.227Z,14.35
2022-12-01T09:03:46.651Z,14.47
2022-12-01T09:06:13.007Z,14.34
2022-12-01T09:08:39.338Z,14.57
2022-12-01T09:11:05.736Z,14.30
2022-12-01T09:13:32.094Z,14.10
2022-12-01T09:15:58.617Z,13.96
2022-12-01T09:18:25.017Z,13.97
2022-12-01T09:20:51.367Z,14.70
2022-12-01T09:23:17.706Z,14.43
2022-12-01T09:25:44.082Z,14.55
2022-12-01T09:28:10.499Z,13.98
2022-12-01T09:30:36.893Z,14.01
2022-12-01T09:33:03.300Z,14.51
2022-12-01T09:35:29.715Z,14.47
2022-12-01T09:37:56.106Z,14.16
2022-12-01T09:40:22.506Z,14.16
2022-12-01T09:42:48.852Z,13.94
2022-12-01T09:45:15.234Z,14.12
2022-12-01T09:47:41.631Z,13.24
2022-12-01T09:50:08.010Z,13.46
2022-12-01T09:52:34.398Z,12.94
2022-12-01T09:55:00.765Z,13.74
2022-12-01T09:57:27.139Z,13.39
2022-12-01T09:59:53.492Z,13.35
2022-12-01T10:02:19.969Z,13.36
2022-12-01T10:04:46.364Z,13.25
2022-12-01T10:07:12.785Z,13.66
2022-12-01T10:09:39.209Z,13.40
2022-12-01T10:12:05.566Z,13.14
2022-12-01T10:14:31.918Z,13.11
2022-12-01T10:16:58.309Z,13.10
2022-12-01T10:19:24.638Z,12.74
2022-12-01T10:21:51.013Z,12.93
2022-12-01T10:24:17.398Z,12.57
2022-12-01T10:26:43.754Z,12.43
2022-12-01T10:29:10.135Z,15.96
2022-12-01T10:31:36.601Z,15.88
2022-12-01T10:34:03.040Z,14.35
2022-12-01T10:36:29.389Z,13.94
2022-12-01T10:38:55.757Z,14.07
2022-12-01T10:41:22.137Z,15.32
2022-12-01T10:43:48.542Z,21.34
2022-12-01T10:46:14.961Z,21.34
2022-12-01T10:48:41.349Z,20.25
2022-12-01T10:51:07.695Z,13.77
2022-12-01T10:53:34.041Z,14.59
2022-12-01T10:56:00.419Z,13.47
2022-12-01T10:58:26.772Z,12.62
2022-12-01T11:01:00.946Z,13.19
2022-12-01T11:03:27.668Z,13.16
2022-12-01T11:05:55.357Z,12.82
2022-12-01T11:08:21.708Z,12.50
2022-12-01T11:10:48.101Z,12.47
2022-12-01T11:13:14.456Z,12.66
2022-12-01T11:15:40.804Z,12.44
2022-12-01T11:18:07.184Z,12.78
2022-12-01T11:20:33.659Z,12.05
2022-12-01T11:23:00.117Z,12.22
2022-12-01T11:25:26.485Z,11.23
2022-12-01T11:27:52.872Z,10.64
2022-12-01T11:30:19.316Z,11.35
2022-12-01T11:32:45.724Z,12.08
2022-12-01T11:35:12.077Z,11.46
2022-12-01T11:37:38.414Z,11.51
2022-12-01T11:40:04.756Z,11.96
2022-12-01T11:42:31.087Z,11.59
2022-12-01T11:44:57.414Z,10.87
2022-12-01T11:47:24.820Z,10.59
2022-12-01T11:49:51.714Z,10.17
2022-12-01T11:52:18.413Z,10.05
2022-12-01T11:54:44.764Z,10.84
2022-12-01T11:57:33.146Z,10.59
2022-12-01T11:59:57.521Z,10.67
2022-12-01T12:02:23.986Z,11.04
2022-12-01T12:04:50.400Z,11.60
2022-12-01T12:07:16.796Z,11.13
2022-12-01T12:09:45.219Z,13.22
2022-12-01T12:12:11.747Z,12.08
2022-12-01T12:14:38.118Z,10.96
2022-12-01T12:17:04.454Z,10.66
2022-12-01T12:19:34.229Z,10.63
2022-12-01T12:22:05.679Z,11.51
2022-12-01T12:24:32.058Z,12.78
2022-12-01T12:26:58.416Z,13.71
2022-12-01T12:29:24.790Z,13.45
2022-12-01T12:31:51.171Z,13.97
2022-12-01T12:34:17.515Z,12.13
2022-12-01T12:36:43.907Z,11.71
2022-12-01T12:39:15.150Z,12.18
2022-12-01T12:41:43.044Z,12.69
2022-12-01T12:44:09.379Z,12.32
2022-12-01T12:46:35.792Z,12.66
2022-12-01T12:51:48.574Z,12.45
2022-12-01T12:54:14.969Z,12.38
2022-12-01T12:56:41.433Z,12.35
2022-12-01T12:59:07.827Z,11.40
2022-12-01T13:01:34.427Z,10.66
2022-12-01T13:04:00.869Z,10.63
2022-12-01T13:06:27.211Z,11.10
2022-12-01T13:08:53.598Z,11.01
2022-12-01T13:11:20.072Z,10.25
2022-12-01T13:13:46.480Z,10.03
2022-12-01T13:16:12.982Z,10.43
2022-12-01T13:18:39.448Z,9.48
2022-12-01T13:21:05.818Z,10.08
2022-12-01T13:23:32.196Z,10.30
2022-12-01T13:25:58.569Z,12.09
2022-12-01T13:28:24.931Z,10.61
2022-12-01T13:30:51.333Z,10.34
2022-12-01T13:33:17.721Z,10.52
2022-12-01T13:35:44.115Z,10.58
2022-12-01T13:38:10.497Z,11.10
2022-12-01T13:40:37.028Z,11.46
2022-12-01T13:43:08.940Z,11.28
2022-12-01T13:45:37.068Z,10.05
2022-12-01T13:48:03.441Z,9.87
2022-12-01T13:50:29.825Z,10.24
2022-12-01T13:52:56.251Z,10.35
2022-12-01T13:55:22.649Z,10.61
2022-12-01T13:57:49.041Z,11.09
2022-12-01T14:00:15.468Z,10.82
2022-12-01T14:02:42.006Z,11.62
2022-12-01T14:05:08.465Z,12.33
2022-12-01T14:07:34.940Z,12.27
2022-12-01T14:10:01.363Z,12.42
2022-12-01T14:12:27.772Z,12.42
2022-12-01T14:14:54.375Z,12.55
2022-12-01T14:17:21.031Z,11.89
2022-12-01T14:19:47.423Z,12.01
2022-12-01T14:22:13.816Z,12.09
2022-12-01T14:24:40.205Z,11.93
2022-12-01T14:27:06.550Z,12.15
2022-12-01T14:29:32.933Z,13.20
2022-12-01T14:31:59.279Z,13.71
2022-12-01T14:34:25.616Z,12.84
2022-12-01T14:36:52.005Z,14.37
2022-12-01T14:39:18.393Z,13.81
2022-12-01T14:41:44.752Z,13.70
2022-12-01T14:44:11.257Z,14.53
2022-12-01T14:46:37.723Z,17.54
2022-12-01T14:49:04.092Z,16.53
2022-12-01T14:51:30.468Z,15.52
2022-12-01T14:53:56.848Z,14.06
2022-12-01T14:56:23.200Z,14.41
2022-12-01T14:58:49.597Z,14.97
2022-12-01T15:01:16.040Z,14.95
2022-12-01T15:03:42.441Z,14.86
2022-12-01T15:06:08.847Z,15.02
2022-12-01T15:08:53.280Z,15.35
2022-12-01T15:11:21.609Z,14.76
2022-12-01T15:13:47.930Z,15.73
2022-12-01T15:16:14.346Z,14.58
2022-12-01T15:18:40.711Z,14.52
2022-12-01T15:21:07.053Z,14.61
2022-12-01T15:23:33.397Z,17.98
2022-12-01T15:25:59.765Z,17.02
2022-12-01T15:28:26.238Z,15.49
2022-12-01T15:30:52.611Z,21.17
2022-12-01T15:33:24.013Z,18.44
2022-12-01T15:35:53.266Z,17.99
2022-12-01T15:38:19.637Z,20.67
2022-12-01T15:43:32.305Z,21.10
2022-12-01T15:45:58.735Z,21.32
2022-12-01T15:48:25.142Z,24.39
2022-12-01T15:50:51.524Z,25.44
2022-12-01T15:53:17.924Z,24.27
2022-12-01T15:55:44.322Z,21.92
2022-12-01T15:58:10.709Z,21.65
2022-12-01T16:00:37.054Z,17.02
2022-12-01T16:03:03.402Z,17.87
2022-12-01T16:05:29.777Z,17.03
2022-12-01T16:08:13.496Z,18.62
2022-12-01T16:10:40.397Z,19.19
2022-12-01T16:13:06.787Z,16.23
2022-12-01T16:15:33.185Z,16.24
2022-12-01T16:17:59.594Z,29.13
2022-12-01T16:20:25.985Z,15.90
2022-12-01T16:22:52.373Z,15.04
2022-12-01T16:25:18.776Z,15.10
2022-12-01T16:27:45.159Z,15.97
2022-12-01T16:30:11.501Z,19.88
2022-12-01T16:32:37.906Z,17.96
2022-12-01T16:35:04.281Z,18.18
2022-12-01T16:37:30.649Z,18.01
2022-12-01T16:39:57.050Z,19.64
2022-12-01T16:42:23.404Z,17.73
2022-12-01T16:44:50.200Z,16.12
2022-12-01T16:47:16.800Z,17.54
2022-12-01T16:49:43.155Z,17.08
2022-12-01T16:52:36.668Z,18.40
2022-12-01T16:54:55.869Z,16.49
2022-12-01T16:57:22.261Z,17.39
2022-12-01T16:59:48.616Z,18.36
2022-12-01T17:02:14.980Z,17.30
2022-12-01T17:04:41.389Z,17.00
2022-12-01T17:07:07.840Z,17.15
2022-12-01T17:09:34.317Z,16.81
2022-12-01T17:12:00.728Z,17.10
2022-12-01T17:14:27.062Z,17.00
2022-12-01T17:16:53.409Z,17.04
2022-12-01T17:19:22.504Z,18.26
2022-12-01T17:21:48.857Z,20.04
2022-12-01T17:24:18.982Z,18.93
2022-12-01T17:26:45.821Z,19.45
2022-12-01T17:29:12.232Z,20.32
2022-12-01T17:31:38.669Z,17.07
2022-12-01T17:34:05.106Z,16.55
2022-12-01T17:36:31.496Z,17.87
2022-12-01T17:38:57.886Z,17.04
2022-12-01T17:41:24.238Z,16.86
2022-12-01T17:43:50.585Z,17.17
2022-12-01T17:46:16.956Z,17.24
2022-12-01T17:48:43.377Z,18.39
2022-12-01T17:51:09.724Z,18.60
2022-12-01T17:53:36.056Z,18.27
2022-12-01T17:56:02.449Z,18.20
2022-12-01T17:58:28.807Z,18.90
2022-12-01T18:00:55.190Z,18.66
2022-12-01T18:03:21.624Z,20.00
2022-12-01T18:05:48.001Z,20.14
2022-12-01T18:08:14.376Z,21.73
2022-12-01T18:10:40.777Z,22.62
2022-12-01T18:13:07.122Z,22.21
2022-12-01T18:15:34.842Z,20.92
2022-12-01T18:18:01.313Z,20.02
2022-12-01T18:20:27.661Z,20.73
2022-12-01T18:22:54.017Z,21.79
2022-12-01T18:25:20.351Z,20.69
2022-12-01T18:27:46.764Z,19.87
2022-12-01T18:30:13.152Z,20.53
2022-12-01T18:32:39.546Z,20.12
2022-12-01T18:35:05.955Z,20.33
2022-12-01T18:37:32.289Z,19.21
2022-12-01T18:39:58.710Z,19.99
2022-12-01T18:42:25.054Z,23.17
2022-12-01T18:44:51.721Z,21.12
2022-12-01T18:47:18.421Z,20.10
2022-12-01T18:49:44.784Z,20.25
2022-12-01T18:52:11.176Z,22.49
2022-12-01T18:54:37.640Z,21.84
2022-12-01T18:57:04.039Z,24.25
2022-12-01T18:59:30.434Z,23.96
2022-12-01T19:01:56.850Z,24.21
2022-12-01T19:04:23.263Z,24.45
2022-12-01T19:06:49.659Z,21.43
2022-12-01T19:09:16.062Z,21.24
2022-12-01T19:11:42.395Z,21.48
2022-12-01T19:14:08.768Z,20.70
2022-12-01T19:16:35.237Z,21.95
2022-12-01T19:19:01.692Z,20.63
2022-12-01T19:21:28.088Z,20.26
2022-12-01T19:23:54.503Z,20.33
2022-12-01T19:26:20.876Z,19.92
2022-12-01T19:28:47.232Z,19.68
2022-12-01T19:31:13.750Z,19.41
2022-12-01T19:33:40.185Z,19.83
2022-12-01T19:36:06.573Z,19.14
2022-12-01T19:38:32.935Z,19.34
2022-12-01T19:40:59.268Z,19.75
2022-12-01T19:43:25.662Z,19.52
2022-12-01T19:45:52.047Z,19.57
2022-12-01T19:48:18.501Z,19.46
2022-12-01T19:50:44.891Z,18.92
2022-12-01T19:53:11.284Z,18.28
2022-12-01T19:55:37.637Z,18.97
2022-12-01T19:58:04.003Z,18.76
2022-12-01T20:00:30.347Z,19.40
2022-12-01T20:02:56.722Z,19.27
2022-12-01T20:05:23.103Z,19.79
2022-12-01T20:07:49.562Z,20.41
2022-12-01T20:10:16.014Z,20.43
2022-12-01T20:12:42.397Z,20.34
2022-12-01T20:15:08.781Z,19.97
2022-12-01T20:17:35.123Z,19.70
2022-12-01T20:20:01.506Z,19.16
2022-12-01T20:22:27.897Z,19.60
2022-12-01T20:24:54.310Z,19.71
2022-12-01T20:27:20.717Z,19.53
2022-12-01T20:29:47.081Z,19.50
2022-12-01T20:32:13.471Z,20.64
2022-12-01T20:34:39.883Z,19.57
2022-12-01T20:37:06.257Z,19.24
2022-12-01T20:39:32.648Z,19.41
2022-12-01T20:41:58.983Z,19.89
2022-12-01T20:44:25.415Z,20.79
2022-12-01T20:46:51.778Z,20.40
2022-12-01T20:49:18.132Z,20.44
2022-12-01T20:51:44.520Z,19.78
2022-12-01T20:54:40.769Z,20.19
2022-12-01T20:56:57.241Z,20.10
2022-12-01T20:59:23.597Z,19.82
2022-12-01T21:01:50.070Z,19.85
2022-12-01T21:04:16.480Z,19.82
2022-12-01T21:06:42.855Z,19.32
2022-12-01T21:09:09.251Z,19.46
2022-12-01T21:11:35.645Z,19.34
2022-12-01T21:14:02.042Z,19.29
2022-12-01T21:16:28.536Z,19.23
2022-12-01T21:18:54.919Z,19.12
2022-12-01T21:21:21.305Z,18.92
2022-12-01T21:23:47.714Z,18.83
2022-12-01T21:26:14.147Z,19.31
2022-12-01T21:28:40.496Z,19.23
2022-12-01T21:31:06.890Z,19.71
2022-12-01T21:33:33.364Z,18.72
2022-12-01T21:35:59.870Z,19.30
2022-12-01T21:38:26.311Z,19.08
2022-12-01T21:40:52.672Z,18.89
2022-12-01T21:43:19.126Z,19.44
2022-12-01T21:45:45.522Z,19.00
2022-12-01T21:48:11.937Z,19.55
2022-12-01T21:50:38.288Z,18.99
2022-12-01T21:53:04.698Z,19.69
2022-12-01T21:55:31.082Z,19.27
2022-12-01T21:57:57.436Z,19.44
2022-12-01T22:00:23.817Z,19.03
2022-12-01T22:02:50.310Z,18.94
2022-12-01T22:05:16.836Z,18.45
2022-12-01T22:07:43.296Z,19.15
2022-12-01T22:10:09.755Z,19.48
2022-12-01T22:12:36.151Z,18.92
2022-12-01T22:15:02.591Z,19.17
2022-12-01T22:17:28.990Z,19.39
2022-12-01T22:19:55.551Z,18.64
2022-12-01T22:22:22.041Z,20.03
2022-12-01T22:24:48.597Z,19.34
2022-12-01T22:27:15.206Z,18.88
2022-12-01T22:29:41.602Z,19.10
2022-12-01T22:32:07.994Z,18.95
2022-12-01T22:34:34.400Z,19.61
2022-12-01T22:37:00.779Z,18.99
2022-12-01T22:39:27.156Z,18.59
2022-12-01T22:41:53.494Z,20.15
2022-12-01T22:44:19.871Z,18.74
2022-12-01T22:46:46.280Z,19.40
2022-12-01T22:49:12.683Z,19.57
2022-12-01T22:51:39.036Z,20.21
2022-12-01T22:54:05.429Z,19.46
2022-12-01T22:56:31.776Z,19.03
2022-12-01T22:58:58.136Z,18.93
2022-12-01T23:01:24.517Z,18.76
2022-12-01T23:03:50.900Z,18.33
2022-12-01T23:06:17.228Z,19.20
2022-12-01T23:08:43.562Z,18.92
2022-12-01T23:11:09.973Z,19.49
2022-12-01T23:13:36.374Z,18.86
2022-12-01T23:16:02.904Z,18.91
2022-12-01T23:18:29.289Z,18.81
2022-12-01T23:20:55.630Z,19.50
2022-12-01T23:23:22.026Z,19.62
2022-12-01T23:25:48.369Z,19.07
2022-12-01T23:28:14.745Z,19.65
2022-12-01T23:30:41.136Z,19.76
2022-12-01T23:33:07.521Z,19.65
2022-12-01T23:35:33.857Z,19.52
2022-12-01T23:38:00.205Z,20.06
2022-12-01T23:40:26.561Z,20.13
2022-12-01T23:42:52.907Z,19.23
2022-12-01T23:45:19.237Z,19.72
2022-12-01T23:47:45.590Z,20.13
2022-12-01T23:50:11.976Z,20.00
2022-12-01T23:52:38.320Z,19.42
2022-12-01T23:55:04.664Z,19.33
2022-12-01T23:57:31.032Z,19.54
2022-12-01T23:59:57.410Z,19.47
